Time;durP1;ratioP1;P1;durP2;ratioP2;P2;SDS_P1;SDS_P2;PMS_P1;PMS_P2;Temp;Humidity;BMP_temperature;BMP_pressure;BME280_temperature;BME280_humidity;BME280_pressure;Samples;Min_cycle;Max_cycle;Signal;HPM_P1;HPM_P2
2023/03/31 00:01:24;;;;;;;5.55;1.65;;;;;;;;;;4995010;28;20220;-48
2023/03/31 00:03:49;;;;;;;4.38;1.60;;;;;;;;;;4991383;28;20213;-48
2023/03/31 00:06:18;;;;;;;4.43;1.98;;;;;;;;;;4997256;28;20287;-48
2023/03/31 00:08:44;;;;;;;2.35;1.45;;;;;;;;;;4989462;28;20196;-48
2023/03/31 00:11:10;;;;;;;3.53;1.88;;;;;;;;;;4991837;28;20181;-48
2023/03/31 00:13:37;;;;;;;5.93;1.80;;;;;;;;;;4997531;28;20188;-48
2023/03/31 00:16:05;;;;;;;3.35;1.65;;;;;;;;;;4991460;28;20189;-48
2023/03/31 00:18:31;;;;;;;3.08;1.65;;;;;;;;;;4993810;28;20195;-48
2023/03/31 00:21:07;;;;;;;1.80;1.40;;;;;;;;;;4991914;28;20216;-48
2023/03/31 00:23:33;;;;;;;3.20;1.52;;;;;;;;;;4997407;28;20177;-48
2023/03/31 00:25:59;;;;;;;3.13;1.40;;;;;;;;;;4991301;28;20227;-48
2023/03/31 00:28:25;;;;;;;3.95;1.65;;;;;;;;;;4995792;28;20201;-48
2023/03/31 00:30:52;;;;;;;2.13;1.08;;;;;;;;;;4988765;28;20565;-48
2023/03/31 00:33:18;;;;;;;3.00;1.50;;;;;;;;;;4994325;28;20421;-48
2023/03/31 00:35:44;;;;;;;3.13;1.60;;;;;;;;;;4987810;28;20220;-47
2023/03/31 00:38:12;;;;;;;3.15;1.52;;;;;;;;;;4996016;28;20200;-47
2023/03/31 00:40:43;;;;;;;2.40;1.52;;;;;;;;;;4991103;28;20425;-47
2023/03/31 00:43:21;;;;;;;4.65;1.50;;;;;;;;;;4996789;28;20185;-48
2023/03/31 00:45:47;;;;;;;3.70;1.50;;;;;;;;;;4991026;28;20255;-48
2023/03/31 00:48:15;;;;;;;2.63;1.17;;;;;;;;;;4995029;28;20185;-48
2023/03/31 00:50:50;;;;;;;4.88;1.30;;;;;;;;;;4995611;28;20182;-48
2023/03/31 00:53:17;;;;;;;2.72;1.50;;;;;;;;;;4993595;28;20231;-48
2023/03/31 00:55:45;;;;;;;2.75;1.10;;;;;;;;;;4992924;28;20213;-48
2023/03/31 00:58:13;;;;;;;3.55;1.50;;;;;;;;;;4986694;28;20220;-48
2023/03/31 01:00:40;;;;;;;3.70;1.10;;;;;;;;;;4991012;28;20181;-47
2023/03/31 01:03:08;;;;;;;3.80;0.98;;;;;;;;;;4984154;28;20186;-48
2023/03/31 01:05:40;;;;;;;2.50;1.25;;;;;;;;;;4993572;28;20197;-48
2023/03/31 01:08:06;;;;;;;3.13;1.20;;;;;;;;;;4989512;28;20186;-48
2023/03/31 01:10:37;;;;;;;4.28;1.10;;;;;;;;;;4993619;28;20473;-48
2023/03/31 01:13:03;;;;;;;3.08;1.15;;;;;;;;;;4989613;28;20217;-48
2023/03/31 01:15:29;;;;;;;2.83;1.15;;;;;;;;;;4994978;28;20199;-48
2023/03/31 01:17:56;;;;;;;3.95;1.33;;;;;;;;;;4989484;28;20185;-48
2023/03/31 01:20:43;;;;;;;3.55;1.17;;;;;;;;;;4994858;28;20189;-48
2023/03/31 01:23:09;;;;;;;2.53;1.48;;;;;;;;;;4989294;28;20177;-48
2023/03/31 01:25:37;;;;;;;2.58;1.10;;;;;;;;;;4994016;28;20208;-48
2023/03/31 01:28:06;;;;;;;3.45;1.20;;;;;;;;;;4994154;28;20177;-48
2023/03/31 01:30:41;;;;;;;3.95;1.40;;;;;;;;;;4994882;28;20537;-48
2023/03/31 01:33:25;;;;;;;3.50;1.20;;;;;;;;;;4990602;28;20228;-47
2023/03/31 01:35:54;;;;;;;3.22;1.23;;;;;;;;;;4990656;28;20215;-47
2023/03/31 01:38:39;;;;;;;5.25;1.38;;;;;;;;;;4991285;28;20201;-47
2023/03/31 01:41:16;;;;;;;2.35;1.02;;;;;;;;;;4995831;28;20261;-48
2023/03/31 01:43:51;;;;;;;4.88;1.10;;;;;;;;;;4995150;28;20841;-48
2023/03/31 01:46:27;;;;;;;3.08;1.27;;;;;;;;;;4991230;28;20207;-48
2023/03/31 01:49:02;;;;;;;2.42;1.08;;;;;;;;;;4989162;28;20236;-47
2023/03/31 01:51:49;;;;;;;3.55;1.33;;;;;;;;;;4994980;28;20188;-47
2023/03/31 01:54:29;;;;;;;2.15;0.90;;;;;;;;;;4995722;28;20177;-47
2023/03/31 01:57:01;;;;;;;3.47;1.25;;;;;;;;;;4994940;28;20204;-48
2023/03/31 01:59:29;;;;;;;3.30;1.17;;;;;;;;;;4994447;28;20181;-48
2023/03/31 02:02:15;;;;;;;4.68;1.33;;;;;;;;;;4995705;28;20587;-48
2023/03/31 02:04:44;;;;;;;2.70;1.10;;;;;;;;;;4994034;28;20216;-48
2023/03/31 02:07:19;;;;;;;4.03;1.17;;;;;;;;;;4987440;28;20592;-48
2023/03/31 02:09:50;;;;;;;2.95;1.02;;;;;;;;;;4984007;28;20189;-48
2023/03/31 02:12:17;;;;;;;3.72;1.20;;;;;;;;;;4982659;28;20177;-48
2023/03/31 02:14:45;;;;;;;4.18;1.05;;;;;;;;;;4995344;28;20308;-48
2023/03/31 02:17:17;;;;;;;3.97;1.10;;;;;;;;;;4994479;28;20191;-48
2023/03/31 02:19:44;;;;;;;1.75;0.70;;;;;;;;;;4995240;28;20756;-48
2023/03/31 02:22:10;;;;;;;3.38;1.40;;;;;;;;;;4994942;28;20439;-48
2023/03/31 02:24:38;;;;;;;2.60;1.23;;;;;;;;;;4988076;28;20213;-48
2023/03/31 02:27:12;;;;;;;4.53;1.20;;;;;;;;;;4994373;28;20185;-48
2023/03/31 02:29:38;;;;;;;5.03;1.42;;;;;;;;;;4990833;28;20185;-48
2023/03/31 02:32:11;;;;;;;3.95;1.13;;;;;;;;;;4988323;28;20260;-48
2023/03/31 02:34:37;;;;;;;4.25;1.20;;;;;;;;;;4994919;28;20267;-48
2023/03/31 02:37:03;;;;;;;2.85;1.35;;;;;;;;;;4993389;28;20603;-48
2023/03/31 02:39:33;;;;;;;2.08;0.90;;;;;;;;;;4991595;28;20264;-47
2023/03/31 02:42:05;;;;;;;4.32;1.65;;;;;;;;;;4988710;28;20271;-47
2023/03/31 02:44:31;;;;;;;3.08;1.08;;;;;;;;;;4978612;28;20208;-47
2023/03/31 02:46:57;;;;;;;5.57;1.35;;;;;;;;;;4986121;28;20193;-47
2023/03/31 02:49:23;;;;;;;5.40;1.30;;;;;;;;;;4993088;28;20203;-48
2023/03/31 02:51:57;;;;;;;3.53;1.23;;;;;;;;;;4993917;28;20691;-48
2023/03/31 02:54:35;;;;;;;4.30;1.17;;;;;;;;;;4993710;28;20525;-48
2023/03/31 02:57:18;;;;;;;3.28;1.00;;;;;;;;;;4983744;28;20181;-48
2023/03/31 03:00:06;;;;;;;2.90;1.35;;;;;;;;;;4994022;28;20284;-48
2023/03/31 03:02:48;;;;;;;3.25;1.42;;;;;;;;;;4992283;28;20317;-47
2023/03/31 03:05:19;;;;;;;3.65;1.17;;;;;;;;;;4989545;28;20224;-47
2023/03/31 03:08:03;;;;;;;5.47;1.15;;;;;;;;;;4992525;28;20180;-47
2023/03/31 03:10:48;;;;;;;5.82;1.42;;;;;;;;;;4991806;28;20191;-47
2023/03/31 03:13:14;;;;;;;3.83;1.05;;;;;;;;;;4992277;28;20207;-48
2023/03/31 03:15:45;;;;;;;2.70;0.90;;;;;;;;;;4992942;28;20620;-48
2023/03/31 03:18:11;;;;;;;2.88;1.00;;;;;;;;;;4992799;28;20247;-47
2023/03/31 03:20:38;;;;;;;4.40;1.73;;;;;;;;;;4993261;28;20216;-47
2023/03/31 03:23:04;;;;;;;1.55;1.08;;;;;;;;;;4994532;28;20189;-47
2023/03/31 03:25:30;;;;;;;2.45;1.38;;;;;;;;;;4991240;28;20209;-48
2023/03/31 03:27:56;;;;;;;2.30;1.10;;;;;;;;;;4993815;28;20182;-48
2023/03/31 03:30:21;;;;;;;2.50;1.00;;;;;;;;;;4986884;28;20193;-48
2023/03/31 03:32:48;;;;;;;2.47;0.95;;;;;;;;;;4988822;28;20180;-48
2023/03/31 03:35:14;;;;;;;1.77;0.90;;;;;;;;;;4993588;28;20557;-48
2023/03/31 03:37:40;;;;;;;4.82;1.63;;;;;;;;;;4991129;28;20445;-48
2023/03/31 03:40:06;;;;;;;4.95;1.33;;;;;;;;;;4992358;28;20215;-47
2023/03/31 03:42:32;;;;;;;3.47;1.48;;;;;;;;;;4986930;28;20190;-47
2023/03/31 03:44:58;;;;;;;3.55;1.10;;;;;;;;;;4993508;28;20312;-47
2023/03/31 03:47:24;;;;;;;2.22;1.00;;;;;;;;;;4991781;28;20514;-47
2023/03/31 03:49:50;;;;;;;3.28;1.15;;;;;;;;;;4993901;28;20189;-48
2023/03/31 03:52:16;;;;;;;4.32;1.17;;;;;;;;;;4991749;28;20193;-48
2023/03/31 03:54:42;;;;;;;4.88;1.33;;;;;;;;;;4993860;28;20208;-48
2023/03/31 03:57:08;;;;;;;7.57;1.50;;;;;;;;;;4992466;28;20265;-47
2023/03/31 03:59:34;;;;;;;10.48;2.08;;;;;;;;;;4992050;28;20197;-47
2023/03/31 04:02:00;;;;;;;5.25;2.08;;;;;;;;;;4992825;28;20185;-47
2023/03/31 04:04:26;;;;;;;5.20;2.08;;;;;;;;;;4991623;28;20189;-47
2023/03/31 04:06:52;;;;;;;9.02;2.10;;;;;;;;;;4988471;28;20216;-48
2023/03/31 04:09:18;;;;;;;5.72;1.58;;;;;;;;;;4991096;28;20240;-48
2023/03/31 04:11:44;;;;;;;9.07;1.95;;;;;;;;;;4982371;28;20209;-48
2023/03/31 04:14:09;;;;;;;10.02;2.47;;;;;;;;;;4992984;28;20241;-47
2023/03/31 04:16:37;;;;;;;4.53;1.60;;;;;;;;;;4983119;28;20201;-47
2023/03/31 04:19:03;;;;;;;8.75;1.90;;;;;;;;;;4992060;28;20268;-48
2023/03/31 04:21:33;;;;;;;6.65;2.10;;;;;;;;;;4992752;28;20208;-48
2023/03/31 04:24:06;;;;;;;7.07;2.00;;;;;;;;;;4997514;28;20189;-48
2023/03/31 04:26:42;;;;;;;10.82;2.08;;;;;;;;;;4995940;28;20525;-48
2023/03/31 04:29:12;;;;;;;6.88;2.00;;;;;;;;;;4995893;28;20591;-48
2023/03/31 04:31:41;;;;;;;7.07;1.95;;;;;;;;;;4993494;28;20189;-48
2023/03/31 04:34:11;;;;;;;5.47;1.63;;;;;;;;;;4992473;28;20184;-48
2023/03/31 04:36:41;;;;;;;8.23;1.88;;;;;;;;;;4994587;28;20203;-48
2023/03/31 04:39:09;;;;;;;6.30;1.60;;;;;;;;;;4997072;28;20260;-48
2023/03/31 04:41:35;;;;;;;4.78;1.52;;;;;;;;;;4995811;28;20185;-48
2023/03/31 04:44:01;;;;;;;4.43;1.80;;;;;;;;;;4996890;28;20236;-48
2023/03/31 04:46:27;;;;;;;5.47;1.85;;;;;;;;;;4995984;28;20209;-48
2023/03/31 04:48:53;;;;;;;6.32;1.50;;;;;;;;;;4989207;28;20348;-48
2023/03/31 04:51:19;;;;;;;5.25;1.40;;;;;;;;;;4985825;28;20193;-48
2023/03/31 04:53:45;;;;;;;4.38;1.52;;;;;;;;;;4995745;28;20268;-48
2023/03/31 04:56:11;;;;;;;6.82;1.52;;;;;;;;;;4995480;28;20192;-47
2023/03/31 04:58:38;;;;;;;4.72;1.60;;;;;;;;;;4996915;28;20185;-47
2023/03/31 05:01:07;;;;;;;4.63;1.40;;;;;;;;;;4992385;28;20204;-47
2023/03/31 05:03:33;;;;;;;6.15;1.30;;;;;;;;;;4987943;28;20190;-47
2023/03/31 05:05:59;;;;;;;6.45;1.80;;;;;;;;;;4995644;28;20207;-47
2023/03/31 05:08:26;;;;;;;9.30;1.60;;;;;;;;;;4996423;28;20185;-48
2023/03/31 05:10:52;;;;;;;5.97;1.30;;;;;;;;;;4992801;28;20190;-48
2023/03/31 05:13:18;;;;;;;3.17;1.52;;;;;;;;;;4992088;28;20452;-48
2023/03/31 05:15:44;;;;;;;4.60;1.83;;;;;;;;;;4994061;28;20265;-48
2023/03/31 05:18:10;;;;;;;3.72;1.48;;;;;;;;;;4983680;28;20215;-48
2023/03/31 05:20:36;;;;;;;4.35;1.35;;;;;;;;;;4987603;28;20186;-48
2023/03/31 05:23:02;;;;;;;5.63;1.88;;;;;;;;;;4989076;28;20199;-48
2023/03/31 05:25:31;;;;;;;5.88;1.77;;;;;;;;;;4994841;28;20670;-47
2023/03/31 05:27:58;;;;;;;4.85;1.55;;;;;;;;;;4992853;28;20595;-47
2023/03/31 05:30:25;;;;;;;3.78;1.70;;;;;;;;;;4992448;28;20192;-47
2023/03/31 05:32:51;;;;;;;4.50;1.70;;;;;;;;;;4990981;28;20181;-47
2023/03/31 05:35:16;;;;;;;5.65;1.67;;;;;;;;;;4996055;28;20189;-47
2023/03/31 05:37:42;;;;;;;3.40;1.35;;;;;;;;;;4995685;28;20204;-47
2023/03/31 05:40:09;;;;;;;6.18;2.15;;;;;;;;;;4996232;28;20596;-47
2023/03/31 05:42:35;;;;;;;3.20;1.40;;;;;;;;;;4995450;28;20185;-47
2023/03/31 05:45:01;;;;;;;3.97;1.70;;;;;;;;;;4994448;28;20204;-47
2023/03/31 05:47:28;;;;;;;3.85;1.52;;;;;;;;;;4986566;28;20202;-48
2023/03/31 05:49:54;;;;;;;2.10;1.05;;;;;;;;;;4996171;28;20205;-47
2023/03/31 05:52:20;;;;;;;3.20;1.50;;;;;;;;;;4994881;28;20177;-48
2023/03/31 05:54:46;;;;;;;5.10;1.35;;;;;;;;;;4995612;28;20185;-48
2023/03/31 05:57:12;;;;;;;3.35;1.35;;;;;;;;;;4993692;28;20193;-48
2023/03/31 05:59:39;;;;;;;4.43;1.58;;;;;;;;;;4995006;28;20639;-48
2023/03/31 06:02:05;;;;;;;6.80;1.50;;;;;;;;;;4995689;28;20181;-48
2023/03/31 06:04:31;;;;;;;3.40;1.25;;;;;;;;;;4987374;28;20193;-48
2023/03/31 06:06:58;;;;;;;3.60;1.58;;;;;;;;;;4994231;28;20192;-48
2023/03/31 06:09:24;;;;;;;2.72;1.35;;;;;;;;;;4990728;28;20579;-48
2023/03/31 06:11:50;;;;;;;6.25;1.60;;;;;;;;;;4991681;28;20204;-48
2023/03/31 06:14:16;;;;;;;3.55;1.30;;;;;;;;;;4989604;28;20189;-48
2023/03/31 06:16:42;;;;;;;4.53;1.45;;;;;;;;;;4992072;28;20189;-48
2023/03/31 06:19:08;;;;;;;5.47;1.33;;;;;;;;;;4993755;28;20575;-48
2023/03/31 06:21:34;;;;;;;3.90;1.63;;;;;;;;;;4991970;28;20196;-48
2023/03/31 06:24:00;;;;;;;3.42;1.38;;;;;;;;;;4992057;28;20278;-48
2023/03/31 06:26:26;;;;;;;5.93;1.75;;;;;;;;;;4994201;28;20308;-48
2023/03/31 06:28:53;;;;;;;3.25;1.40;;;;;;;;;;4988239;28;20181;-48
2023/03/31 06:31:20;;;;;;;5.07;1.60;;;;;;;;;;4993868;28;20545;-48
2023/03/31 06:33:46;;;;;;;2.60;1.20;;;;;;;;;;4988464;28;20181;-48
2023/03/31 06:36:13;;;;;;;1.98;1.35;;;;;;;;;;4989415;28;20215;-48
2023/03/31 06:38:39;;;;;;;5.65;1.73;;;;;;;;;;4993941;28;20201;-48
2023/03/31 06:41:06;;;;;;;3.97;1.30;;;;;;;;;;4993712;28;20208;-48
2023/03/31 06:43:32;;;;;;;4.03;1.48;;;;;;;;;;4993680;28;20193;-48
2023/03/31 06:45:58;;;;;;;4.43;1.30;;;;;;;;;;4992976;28;20227;-48
2023/03/31 06:48:24;;;;;;;3.70;1.42;;;;;;;;;;4994917;28;20192;-48
2023/03/31 06:50:50;;;;;;;3.83;1.42;;;;;;;;;;4989193;28;20185;-48
2023/03/31 06:53:16;;;;;;;5.68;1.40;;;;;;;;;;4990042;28;20216;-48
2023/03/31 06:55:42;;;;;;;2.22;1.25;;;;;;;;;;4992629;28;20193;-47
2023/03/31 06:58:08;;;;;;;3.03;1.30;;;;;;;;;;4995162;28;20481;-47
2023/03/31 07:00:34;;;;;;;4.43;1.40;;;;;;;;;;4981533;28;20237;-47
2023/03/31 07:03:00;;;;;;;3.25;1.33;;;;;;;;;;4988096;28;20197;-47
2023/03/31 07:05:27;;;;;;;3.85;1.52;;;;;;;;;;4993558;28;20207;-47
2023/03/31 07:07:54;;;;;;;3.63;1.33;;;;;;;;;;4992775;28;20188;-47
2023/03/31 07:10:20;;;;;;;3.38;1.50;;;;;;;;;;4994137;28;20181;-48
2023/03/31 07:12:46;;;;;;;2.80;1.55;;;;;;;;;;4994044;28;20255;-48
2023/03/31 07:15:12;;;;;;;4.25;1.70;;;;;;;;;;4985726;28;20488;-48
2023/03/31 07:17:40;;;;;;;5.75;1.48;;;;;;;;;;4991265;28;20193;-48
2023/03/31 07:20:16;;;;;;;4.10;1.73;;;;;;;;;;4994250;28;20181;-48
2023/03/31 07:22:42;;;;;;;3.55;1.50;;;;;;;;;;4990771;28;20236;-48
2023/03/31 07:25:09;;;;;;;2.33;1.40;;;;;;;;;;4992231;28;20209;-47
2023/03/31 07:27:35;;;;;;;4.03;1.63;;;;;;;;;;4983589;28;20193;-47
2023/03/31 07:30:01;;;;;;;3.55;1.15;;;;;;;;;;4990030;28;20440;-47
2023/03/31 07:32:27;;;;;;;6.45;1.38;;;;;;;;;;4993164;28;20189;-48
2023/03/31 07:34:53;;;;;;;3.38;1.25;;;;;;;;;;4994565;28;20256;-48
2023/03/31 07:37:19;;;;;;;3.50;1.23;;;;;;;;;;4990933;28;20204;-48
2023/03/31 07:39:45;;;;;;;2.35;1.10;;;;;;;;;;4993614;28;20243;-48
2023/03/31 07:42:11;;;;;;;4.50;1.75;;;;;;;;;;4991035;28;20181;-48
2023/03/31 07:44:37;;;;;;;3.10;1.10;;;;;;;;;;4991412;28;20181;-48
2023/03/31 07:47:05;;;;;;;4.80;1.35;;;;;;;;;;4991725;28;20449;-48
2023/03/31 07:49:31;;;;;;;3.15;1.10;;;;;;;;;;4994339;28;20178;-48
2023/03/31 07:51:57;;;;;;;5.90;1.55;;;;;;;;;;4992178;28;20263;-48
2023/03/31 07:54:23;;;;;;;4.45;1.73;;;;;;;;;;4991026;28;20312;-48
2023/03/31 07:56:49;;;;;;;2.28;1.20;;;;;;;;;;4989957;28;20185;-48
2023/03/31 07:59:15;;;;;;;2.22;1.10;;;;;;;;;;4995410;28;20189;-48
2023/03/31 08:01:41;;;;;;;3.60;1.67;;;;;;;;;;4995129;28;20177;-48
2023/03/31 08:04:07;;;;;;;3.75;1.60;;;;;;;;;;4992697;28;20232;-48
2023/03/31 08:06:33;;;;;;;4.57;1.30;;;;;;;;;;4993980;28;20209;-47
2023/03/31 08:08:59;;;;;;;2.78;1.30;;;;;;;;;;4992134;28;20617;-47
2023/03/31 08:11:25;;;;;;;2.22;1.20;;;;;;;;;;4992714;28;20216;-47
2023/03/31 08:13:51;;;;;;;2.45;1.10;;;;;;;;;;4997419;28;20189;-47
2023/03/31 08:16:17;;;;;;;3.17;1.23;;;;;;;;;;4995125;28;20192;-47
2023/03/31 08:18:43;;;;;;;2.53;1.30;;;;;;;;;;4996788;28;20181;-47
2023/03/31 08:21:09;;;;;;;2.08;1.20;;;;;;;;;;4997207;28;20484;-47
2023/03/31 08:23:36;;;;;;;3.63;1.40;;;;;;;;;;4993755;28;20289;-48
2023/03/31 08:26:12;;;;;;;2.78;1.45;;;;;;;;;;4989293;28;20243;-47
2023/03/31 08:28:38;;;;;;;3.95;1.48;;;;;;;;;;4996335;28;20251;-47
2023/03/31 08:31:05;;;;;;;2.85;1.45;;;;;;;;;;4989184;28;20304;-47
2023/03/31 08:33:32;;;;;;;2.10;1.17;;;;;;;;;;4995741;28;20181;-47
2023/03/31 08:36:01;;;;;;;3.08;1.30;;;;;;;;;;4991296;28;20247;-47
2023/03/31 08:38:27;;;;;;;3.45;1.42;;;;;;;;;;4992826;28;20203;-47
2023/03/31 08:40:58;;;;;;;4.40;1.10;;;;;;;;;;4990103;28;20190;-47
2023/03/31 08:43:27;;;;;;;2.13;1.20;;;;;;;;;;4987973;28;20708;-47
2023/03/31 08:45:55;;;;;;;4.28;1.58;;;;;;;;;;4993293;28;20496;-47
2023/03/31 08:48:26;;;;;;;3.05;1.40;;;;;;;;;;4994003;28;20588;-47
2023/03/31 08:50:58;;;;;;;2.00;1.10;;;;;;;;;;4991051;28;20561;-48
2023/03/31 08:53:32;;;;;;;3.33;1.30;;;;;;;;;;4991047;28;20287;-48
2023/03/31 08:56:00;;;;;;;2.67;1.42;;;;;;;;;;4994251;28;20426;-47
2023/03/31 08:58:33;;;;;;;2.38;1.10;;;;;;;;;;4995956;28;20212;-47
2023/03/31 09:01:08;;;;;;;2.83;1.20;;;;;;;;;;4994133;28;20200;-47
2023/03/31 09:03:40;;;;;;;2.97;1.35;;;;;;;;;;4996017;28;20189;-47
2023/03/31 09:06:08;;;;;;;2.38;1.40;;;;;;;;;;4993000;28;20200;-48
2023/03/31 09:08:36;;;;;;;3.15;1.27;;;;;;;;;;4993626;28;20284;-48
2023/03/31 09:11:05;;;;;;;2.40;1.10;;;;;;;;;;4990663;28;20201;-48
2023/03/31 09:13:50;;;;;;;1.55;1.10;;;;;;;;;;4989884;28;20175;-48
2023/03/31 09:16:19;;;;;;;5.15;1.65;;;;;;;;;;4993675;28;20186;-48
2023/03/31 09:18:48;;;;;;;1.95;1.10;;;;;;;;;;4994530;28;20209;-48
2023/03/31 09:21:20;;;;;;;2.75;1.20;;;;;;;;;;4991673;28;20189;-48
2023/03/31 09:24:07;;;;;;;2.58;1.50;;;;;;;;;;4993923;28;20205;-48
2023/03/31 09:26:38;;;;;;;2.35;1.33;;;;;;;;;;4994321;28;20213;-48
2023/03/31 09:29:07;;;;;;;3.28;1.60;;;;;;;;;;4992422;28;20181;-48
2023/03/31 09:31:34;;;;;;;3.53;1.65;;;;;;;;;;4989784;28;20220;-48
2023/03/31 09:34:00;;;;;;;3.50;1.60;;;;;;;;;;4995037;28;20176;-49
2023/03/31 09:36:27;;;;;;;3.13;1.55;;;;;;;;;;4992989;28;20186;-48
2023/03/31 09:38:53;;;;;;;1.80;1.27;;;;;;;;;;4987631;28;20181;-49
2023/03/31 09:41:19;;;;;;;2.97;1.60;;;;;;;;;;4990188;28;20193;-48
2023/03/31 09:43:45;;;;;;;3.03;1.73;;;;;;;;;;4993612;28;20269;-48
2023/03/31 09:46:15;;;;;;;3.17;1.50;;;;;;;;;;4995450;28;20480;-48
2023/03/31 09:48:44;;;;;;;3.08;1.30;;;;;;;;;;4996028;28;20189;-47
2023/03/31 09:51:16;;;;;;;6.43;1.58;;;;;;;;;;4993313;28;20189;-48
2023/03/31 09:53:48;;;;;;;2.30;1.67;;;;;;;;;;4994233;28;20208;-48
2023/03/31 09:56:30;;;;;;;1.23;1.05;;;;;;;;;;4995319;28;20189;-48
2023/03/31 09:59:00;;;;;;;2.95;1.50;;;;;;;;;;4983623;28;20235;-48
2023/03/31 10:01:28;;;;;;;3.38;1.52;;;;;;;;;;4988484;28;20182;-48
2023/03/31 10:03:55;;;;;;;3.88;1.30;;;;;;;;;;4982522;28;20228;-48
2023/03/31 10:06:22;;;;;;;2.47;1.65;;;;;;;;;;4995408;28;20197;-48
2023/03/31 10:08:54;;;;;;;3.03;1.60;;;;;;;;;;4995647;28;20197;-48
2023/03/31 10:11:20;;;;;;;2.55;1.48;;;;;;;;;;4995498;28;20197;-48
2023/03/31 10:13:48;;;;;;;2.15;1.42;;;;;;;;;;4995101;28;20181;-47
2023/03/31 10:16:27;;;;;;;3.78;1.60;;;;;;;;;;4991734;28;20458;-47
2023/03/31 10:18:53;;;;;;;3.03;1.35;;;;;;;;;;4989127;28;20181;-47
2023/03/31 10:21:22;;;;;;;2.63;1.30;;;;;;;;;;4985235;28;20276;-47
2023/03/31 10:23:49;;;;;;;2.67;1.50;;;;;;;;;;4994238;28;20449;-48
2023/03/31 10:26:20;;;;;;;1.98;1.23;;;;;;;;;;4989594;28;20215;-47
2023/03/31 10:28:49;;;;;;;1.85;1.20;;;;;;;;;;4989681;28;20181;-48
2023/03/31 10:31:15;;;;;;;3.70;1.30;;;;;;;;;;4989796;28;20505;-48
2023/03/31 10:33:45;;;;;;;1.80;1.48;;;;;;;;;;4990165;28;20182;-48
2023/03/31 10:36:19;;;;;;;1.67;1.58;;;;;;;;;;4990989;28;20509;-47
2023/03/31 10:38:46;;;;;;;2.78;1.42;;;;;;;;;;4995057;28;20580;-47
2023/03/31 10:41:17;;;;;;;1.48;1.33;;;;;;;;;;4989210;28;20189;-47
2023/03/31 10:43:47;;;;;;;1.67;1.50;;;;;;;;;;4987482;28;20202;-48
2023/03/31 10:46:13;;;;;;;1.58;1.30;;;;;;;;;;4988676;28;20205;-48
2023/03/31 10:48:41;;;;;;;2.33;1.50;;;;;;;;;;4992855;28;20189;-48
2023/03/31 10:51:11;;;;;;;1.80;1.40;;;;;;;;;;4991720;28;20181;-47
2023/03/31 10:53:45;;;;;;;1.92;1.30;;;;;;;;;;4989934;28;20182;-47
2023/03/31 10:56:33;;;;;;;2.65;1.45;;;;;;;;;;4989965;28;20287;-47
2023/03/31 10:59:23;;;;;;;1.70;1.60;;;;;;;;;;4986852;28;20199;-48
2023/03/31 11:02:08;;;;;;;2.60;1.65;;;;;;;;;;4985537;28;20426;-48
2023/03/31 11:04:34;;;;;;;1.70;1.60;;;;;;;;;;4990439;28;20235;-48
2023/03/31 11:07:11;;;;;;;2.67;1.50;;;;;;;;;;4991507;28;20181;-48
2023/03/31 11:09:44;;;;;;;2.95;1.70;;;;;;;;;;4993780;28;20181;-48
2023/03/31 11:12:28;;;;;;;1.73;1.40;;;;;;;;;;4994910;28;20240;-48
2023/03/31 11:15:13;;;;;;;1.27;1.17;;;;;;;;;;4989886;28;20196;-48
2023/03/31 11:18:03;;;;;;;2.33;1.42;;;;;;;;;;4987612;28;20189;-48
2023/03/31 11:20:58;;;;;;;1.73;1.63;;;;;;;;;;4987985;28;20193;-47
2023/03/31 11:23:40;;;;;;;1.83;1.40;;;;;;;;;;4989388;28;20208;-47
2023/03/31 11:26:14;;;;;;;3.60;2.00;;;;;;;;;;4982279;28;20204;-47
2023/03/31 11:28:46;;;;;;;3.63;1.95;;;;;;;;;;4989747;28;20177;-47
2023/03/31 11:31:36;;;;;;;2.17;1.50;;;;;;;;;;4993075;28;20212;-47
2023/03/31 11:34:17;;;;;;;2.90;1.80;;;;;;;;;;4991122;28;20251;-46
2023/03/31 11:36:43;;;;;;;2.55;1.45;;;;;;;;;;4997805;28;20572;-47
2023/03/31 11:39:28;;;;;;;1.42;1.25;;;;;;;;;;4992495;28;20235;-48
2023/03/31 11:42:17;;;;;;;2.92;1.30;;;;;;;;;;4997140;28;20192;-47
2023/03/31 11:44:45;;;;;;;3.50;1.73;;;;;;;;;;4992615;28;20217;-48
2023/03/31 11:47:20;;;;;;;3.10;1.58;;;;;;;;;;4996681;28;20188;-48
2023/03/31 11:49:50;;;;;;;8.05;2.35;;;;;;;;;;4997550;28;20427;-48
2023/03/31 11:52:24;;;;;;;6.72;1.98;;;;;;;;;;4994743;28;20255;-48
2023/03/31 11:54:50;;;;;;;16.00;2.33;;;;;;;;;;4998406;28;20265;-48
2023/03/31 11:57:18;;;;;;;5.97;1.88;;;;;;;;;;4997222;28;20219;-48
2023/03/31 11:59:46;;;;;;;8.30;1.70;;;;;;;;;;4997985;28;20493;-48
2023/03/31 12:02:16;;;;;;;11.45;2.25;;;;;;;;;;4997213;28;20585;-48
2023/03/31 12:04:43;;;;;;;9.27;1.73;;;;;;;;;;4996752;28;20443;-48
2023/03/31 12:07:17;;;;;;;5.22;1.65;;;;;;;;;;4991102;28;20564;-48
2023/03/31 12:10:04;;;;;;;5.40;1.90;;;;;;;;;;4997197;28;20212;-48
2023/03/31 12:12:31;;;;;;;5.43;1.90;;;;;;;;;;4992189;28;20181;-48
2023/03/31 12:15:03;;;;;;;7.00;1.73;;;;;;;;;;4992545;28;20217;-48
2023/03/31 12:17:29;;;;;;;5.15;1.75;;;;;;;;;;4995131;28;20276;-48
2023/03/31 12:19:57;;;;;;;3.45;1.75;;;;;;;;;;4994494;28;20181;-48
2023/03/31 12:22:37;;;;;;;10.38;1.77;;;;;;;;;;4996010;28;20473;-48
2023/03/31 12:25:04;;;;;;;6.57;2.10;;;;;;;;;;4993537;28;20513;-48
2023/03/31 12:27:37;;;;;;;6.07;1.85;;;;;;;;;;4993763;28;20193;-48
2023/03/31 12:30:03;;;;;;;6.18;2.00;;;;;;;;;;4996106;28;20213;-48
2023/03/31 12:32:40;;;;;;;5.90;2.13;;;;;;;;;;4995188;28;20704;-48
2023/03/31 12:35:10;;;;;;;4.75;2.25;;;;;;;;;;4993135;28;20584;-48
2023/03/31 12:37:50;;;;;;;6.57;2.22;;;;;;;;;;4992803;28;20683;-48
2023/03/31 12:40:23;;;;;;;6.47;2.35;;;;;;;;;;4995946;28;20189;-48
2023/03/31 12:42:54;;;;;;;9.43;2.47;;;;;;;;;;4991830;28;20211;-49
2023/03/31 12:45:24;;;;;;;5.60;2.20;;;;;;;;;;4990046;28;20209;-48
2023/03/31 12:47:57;;;;;;;4.53;1.88;;;;;;;;;;4996945;28;20595;-49
2023/03/31 12:50:28;;;;;;;5.45;1.92;;;;;;;;;;4994028;28;20177;-48
2023/03/31 12:53:13;;;;;;;4.97;2.67;;;;;;;;;;4989149;28;20200;-49
2023/03/31 12:55:40;;;;;;;4.93;2.13;;;;;;;;;;4990174;28;20193;-48
2023/03/31 12:58:33;;;;;;;7.43;2.05;;;;;;;;;;4997081;28;20177;-48
2023/03/31 13:01:20;;;;;;;7.32;2.10;;;;;;;;;;4995200;28;20240;-48
2023/03/31 13:03:49;;;;;;;3.92;1.95;;;;;;;;;;4990548;28;20537;-48
2023/03/31 13:06:27;;;;;;;6.50;2.03;;;;;;;;;;4990516;28;20220;-49
2023/03/31 13:09:03;;;;;;;4.72;2.10;;;;;;;;;;4994583;28;20188;-48
2023/03/31 13:11:38;;;;;;;5.45;2.58;;;;;;;;;;4989407;28;20180;-48
2023/03/31 13:14:16;;;;;;;5.10;2.30;;;;;;;;;;4991034;28;20180;-49
2023/03/31 13:16:42;;;;;;;6.68;2.03;;;;;;;;;;4988657;28;20189;-48
2023/03/31 13:19:12;;;;;;;7.88;2.15;;;;;;;;;;4995825;28;20263;-49
2023/03/31 13:21:55;;;;;;;4.50;2.00;;;;;;;;;;4990976;28;20196;-48
2023/03/31 13:24:22;;;;;;;3.90;1.90;;;;;;;;;;4992731;28;20189;-48
2023/03/31 13:26:48;;;;;;;3.25;1.90;;;;;;;;;;4994014;28;20208;-49
2023/03/31 13:29:14;;;;;;;4.72;2.17;;;;;;;;;;4994959;28;20193;-49
2023/03/31 13:31:59;;;;;;;4.38;1.85;;;;;;;;;;4988657;28;20185;-48
2023/03/31 13:34:25;;;;;;;5.47;2.15;;;;;;;;;;4991977;28;20177;-48
2023/03/31 13:36:59;;;;;;;3.28;1.73;;;;;;;;;;4985584;28;20224;-48
2023/03/31 13:39:43;;;;;;;3.42;1.50;;;;;;;;;;4987658;28;20182;-48
2023/03/31 13:42:27;;;;;;;4.53;1.98;;;;;;;;;;4992659;28;20562;-48
2023/03/31 13:45:04;;;;;;;4.38;1.42;;;;;;;;;;4993900;28;20227;-48
2023/03/31 13:47:33;;;;;;;3.97;1.92;;;;;;;;;;4995215;28;20793;-48
2023/03/31 13:50:05;;;;;;;3.08;1.90;;;;;;;;;;4994332;28;20236;-49
2023/03/31 13:52:50;;;;;;;4.55;2.10;;;;;;;;;;4995192;28;20181;-49
2023/03/31 13:55:16;;;;;;;3.65;1.40;;;;;;;;;;4989251;28;20252;-48
2023/03/31 13:57:44;;;;;;;4.65;1.95;;;;;;;;;;4986157;28;20181;-48
2023/03/31 14:00:17;;;;;;;2.10;1.52;;;;;;;;;;4990952;28;20627;-49
2023/03/31 14:02:50;;;;;;;3.67;1.75;;;;;;;;;;4989649;28;20219;-49
2023/03/31 14:05:28;;;;;;;3.83;1.65;;;;;;;;;;4994365;28;20219;-49
2023/03/31 14:07:53;;;;;;;5.10;1.60;;;;;;;;;;4995007;28;20188;-48
2023/03/31 14:10:30;;;;;;;5.32;1.80;;;;;;;;;;4989318;28;20186;-48
2023/03/31 14:13:06;;;;;;;3.10;1.40;;;;;;;;;;4992695;28;20188;-49
2023/03/31 14:15:33;;;;;;;3.85;1.55;;;;;;;;;;4989286;28;20183;-48
2023/03/31 14:17:59;;;;;;;4.43;1.50;;;;;;;;;;4990870;28;20819;-49
2023/03/31 14:20:25;;;;;;;3.85;1.35;;;;;;;;;;4990878;28;20232;-49
2023/03/31 14:23:01;;;;;;;3.30;1.50;;;;;;;;;;4988428;28;20185;-49
2023/03/31 14:25:29;;;;;;;3.00;1.30;;;;;;;;;;4990212;28;20227;-48
2023/03/31 14:28:17;;;;;;;2.88;1.50;;;;;;;;;;4990933;28;20193;-49
2023/03/31 14:30:53;;;;;;;2.90;1.50;;;;;;;;;;4982412;28;20212;-48
2023/03/31 14:33:28;;;;;;;2.33;1.20;;;;;;;;;;4990466;28;20181;-48
2023/03/31 14:35:58;;;;;;;1.85;1.50;;;;;;;;;;4987396;28;20291;-49
2023/03/31 14:38:24;;;;;;;1.92;1.35;;;;;;;;;;4988312;28;20197;-48
2023/03/31 14:40:59;;;;;;;2.55;1.15;;;;;;;;;;4987337;28;20188;-48
2023/03/31 14:43:33;;;;;;;2.88;1.23;;;;;;;;;;4987832;28;20185;-48
2023/03/31 14:46:00;;;;;;;2.70;1.75;;;;;;;;;;4985580;28;20638;-49
2023/03/31 14:48:27;;;;;;;1.90;1.15;;;;;;;;;;4987223;28;20548;-48
2023/03/31 14:50:56;;;;;;;2.38;1.17;;;;;;;;;;4989687;28;20181;-48
2023/03/31 14:53:23;;;;;;;1.73;1.27;;;;;;;;;;4988588;28;20236;-48
2023/03/31 14:55:50;;;;;;;1.92;1.25;;;;;;;;;;4993754;28;20220;-48
2023/03/31 14:58:24;;;;;;;2.55;1.20;;;;;;;;;;4994219;28;20273;-49
2023/03/31 15:00:51;;;;;;;2.45;1.35;;;;;;;;;;4992897;28;20524;-48